Aviation Digital Data Service (ADDS)

Output produced by METARs form (0152 UTC 22 June 2018)
found at http://www.aviationweather.gov/adds/metars/
 
EFJY 220120Z AUTO 06011KT 8000 +TSRA OVC005 13/12 Q0991 RETSRA
EFHA 220120Z AUTO 01004KT 9999 -RA OVC003 13/13 Q0989 RERA
EFTP 220150Z AUTO 20008KT 7000 RA FEW002 SCT038 BKN050 11/11 Q0990 RETSRA
EFMI 220120Z AUTO 12012KT 090V170 9999 OVC008 16/15 Q0991
EFKU 220120Z AUTO 08005KT 010V180 9999 RA SCT025 OVC063 12/11 Q0995 RETSRA
EFKI 220120Z AUTO 08006KT CAVOK 13/06 Q0999
EFLP 220120Z AUTO 13009KT 050V190 9999 -RA SCT007 BKN034 BKN060 OVC070 16/15 Q0993
EFSI 220120Z AUTO 03010KT 360V060 9999 RA FEW006 BKN017 10/09 Q0991
EFTU 220150Z AUTO 18007KT 9999 SCT007/// BKN011/// OVC014/// 11/10 Q0990